Greeley, IA (52050)

12:41 AM CST on March 05, 2015 (GMT -0600)
IADOT Manchester (US 20) | Change Station
CLOSE
Current Station
Personal Weather Station
Location: Manchester, IA
Elevation: 1013 ft
Nearby Weather Stations
Active Advisory: Special Statement

Elev 1013 ft 42.47 °N, 91.45 °W | Updated 39 minutes ago

Clear
Clear
1 °F
Feels Like 1 °F
N
1
Wind Variable Wind from NW
Gusts 3.0 mph

Today
High -- | Low -- °F
--% Chance of Precip.
Yesterday
High -- | Low -- °F
Precip. -- in
6:34 AM 5:59 PM
Full, 100% visible
Pressure 30.41 in
Visibility 10.0 miles
Clouds Clear
Windchill 1 °F
Dew Point -7 °F
Humidity 69%
Rainfall in
Snow Depth Not available.
UV 0 out of 12
Pollen .10 out of 12
Air Quality Not available.
Flu Activity Not available.
METAR KMXO 050615Z AUTO 35010KT 10SM CLR M16/M22 A3041 RMK AO2

More Conditions Fewer Conditions

Pressure 30.41 in
Visibility 10.0 miles
Clouds Clear
Windchill 1 °F
Dew Point -7 °F
Humidity 69%
Rainfall in
Snow Depth Not available.
UV 0 out of 12
Pollen .10 out of 12
Air Quality Not available.
Flu Activity Not available.
METAR KMXO 050615Z AUTO 35010KT 10SM CLR M16/M22 A3041 RMK AO2

More Conditions Fewer Conditions

10-Day Weather Forecast

Almanac

Astronomy

Mar. 05, 2015 Rise Set
Actual Time
Civil Twilight
Nautical Twilight
Astronomical Twilight
Moon
Length of Visible Light
Length of Day
Tomorrow will be .
, % of the Moon is Illuminated

Today's Extremes

State Highs State Lows

Community

WunderPhotos

Upload Photos

1,802,689 photos uploaded!

WunderBlogs® & News

Nearby

Air Quality

  Air Quality AQ Index Pollutant
Not available.

Snow Depth

Station Depth Elevation

Earthquake Activity

City Distance Mag. Time & Date
Minimum magnitude displayed is 2.5.

Coastal Water Temperatures

Place Temperature

Nearby Weather Stations

Special Statement
Statement as of 9:41 PM CST on March 04, 2015

... Bitterly cold overnight into early Thursday morning...

Another Arctic air mass will settle over the area overnight.
Expect temperatures to drop to 5 to 10 below zero. Northwest
winds around 5 mph will combine with the cold to produce wind
chills of 15 to around 20 below zero... through 9 am Thursday.

Wind chills of 20 below zero or colder can produce frostbite
within 30 minutes. Dress appropriately if venturing outside.

Rp Kinney